Godella, Spain
Current Conditions -  °F | °C
As of 9:00 PM on Friday 24 Oct 2014 (Local Time) from LEVC Reporting Station
Clear Clear  
Wind Chill: 72°   Ceiling: Unl
Heat Index: 72°   Visibility: 6mi
Dew Point: 52°   Wind: 3mph
Humidity: 50%   Direction: NA
Pressure: 30.03"   Gusts: 15mph
Location:  39.53°N, 0.42°W
Report Text: LEVC 241900Z VRB03G13KT CAVOK 22/11 Q1017 NOSIG
Loading
Personal Weather Stations






























Interactive Weather Map
Tropical Storm Tracking
New forecast layout! Learn more

10-Day Weather Forecast

Advertisements
Track Severe Weather on mobile